Time;durP1;ratioP1;P1;durP2;ratioP2;P2;SDS_P1;SDS_P2;PMS_P1;PMS_P2;Temp;Humidity;BMP_temperature;BMP_pressure;BME280_temperature;BME280_humidity;BME280_pressure;Samples;Min_cycle;Max_cycle;Signal;HPM_P1;HPM_P2
2021/10/03 00:00:53;;;;;;;28.83;18.90;;;;;;;;;;5041074;28;20379;-61
2021/10/03 00:03:22;;;;;;;30.27;18.88;;;;;;;;;;5037976;28;20026;-62
2021/10/03 00:05:48;;;;;;;29.25;20.50;;;;;;;;;;5036493;28;20060;-61
2021/10/03 00:08:14;;;;;;;29.65;18.23;;;;;;;;;;5036452;28;20049;-62
2021/10/03 00:10:39;;;;;;;32.95;19.95;;;;;;;;;;5037464;28;20018;-60
2021/10/03 00:13:05;;;;;;;29.75;20.13;;;;;;;;;;5035361;28;20087;-60
2021/10/03 00:15:34;;;;;;;28.63;20.33;;;;;;;;;;5036845;28;20104;-60
2021/10/03 00:17:59;;;;;;;28.38;18.73;;;;;;;;;;5037299;28;20029;-60
2021/10/03 00:20:24;;;;;;;29.48;19.80;;;;;;;;;;5042208;28;20025;-60
2021/10/03 00:22:50;;;;;;;27.67;18.45;;;;;;;;;;5037911;28;20038;-61
2021/10/03 00:25:15;;;;;;;29.73;19.58;;;;;;;;;;5035018;28;20025;-60
2021/10/03 00:27:41;;;;;;;26.77;18.13;;;;;;;;;;5037140;28;20021;-57
2021/10/03 00:30:07;;;;;;;29.10;19.05;;;;;;;;;;5037113;28;20032;-56
2021/10/03 00:32:32;;;;;;;25.60;17.17;;;;;;;;;;5040137;28;20017;-61
2021/10/03 00:34:58;;;;;;;29.80;19.10;;;;;;;;;;5033630;28;20028;-60
2021/10/03 00:37:23;;;;;;;28.77;18.17;;;;;;;;;;5036619;28;20040;-59
2021/10/03 00:39:48;;;;;;;29.30;18.60;;;;;;;;;;5038560;28;20569;-59
2021/10/03 00:42:14;;;;;;;26.60;18.88;;;;;;;;;;5034399;28;20033;-60
2021/10/03 00:44:39;;;;;;;30.23;19.13;;;;;;;;;;5034596;28;20051;-61
2021/10/03 00:47:04;;;;;;;28.95;20.83;;;;;;;;;;5037264;28;20281;-61
2021/10/03 00:49:33;;;;;;;30.48;19.40;;;;;;;;;;5037181;28;20358;-59
2021/10/03 00:52:00;;;;;;;29.38;19.10;;;;;;;;;;5041829;28;20029;-61
2021/10/03 00:54:25;;;;;;;29.73;19.80;;;;;;;;;;5045134;28;20102;-61
2021/10/03 00:56:50;;;;;;;30.17;19.80;;;;;;;;;;5043328;28;20068;-57
2021/10/03 00:59:15;;;;;;;30.23;20.42;;;;;;;;;;5036112;28;20375;-61
2021/10/03 01:01:41;;;;;;;32.97;20.98;;;;;;;;;;5036726;28;20018;-61
2021/10/03 01:04:06;;;;;;;33.28;21.15;;;;;;;;;;5037707;28;20053;-61
2021/10/03 01:06:31;;;;;;;30.70;21.30;;;;;;;;;;5034527;28;20044;-61
2021/10/03 01:08:56;;;;;;;30.70;20.92;;;;;;;;;;5039181;28;20033;-59
2021/10/03 01:11:22;;;;;;;30.98;21.58;;;;;;;;;;5036382;28;20483;-61
2021/10/03 01:13:47;;;;;;;34.88;22.83;;;;;;;;;;5034451;28;20035;-61
2021/10/03 01:16:13;;;;;;;33.05;22.17;;;;;;;;;;5034112;28;20496;-60
2021/10/03 01:18:38;;;;;;;33.35;22.42;;;;;;;;;;5038875;28;20033;-61
2021/10/03 01:21:07;;;;;;;37.80;23.95;;;;;;;;;;5037584;28;20411;-59
2021/10/03 01:23:32;;;;;;;33.42;21.25;;;;;;;;;;5030370;28;20605;-60
2021/10/03 01:25:58;;;;;;;35.00;23.45;;;;;;;;;;5034970;28;20180;-59
2021/10/03 01:28:23;;;;;;;31.88;21.50;;;;;;;;;;5039730;28;20483;-60
2021/10/03 01:30:50;;;;;;;38.92;22.58;;;;;;;;;;5035598;28;20123;-59
2021/10/03 01:33:16;;;;;;;38.67;22.58;;;;;;;;;;5033633;28;20029;-59
2021/10/03 01:35:42;;;;;;;34.45;21.70;;;;;;;;;;5036223;28;20460;-60
2021/10/03 01:38:08;;;;;;;34.00;22.17;;;;;;;;;;5036974;28;20082;-61
2021/10/03 01:40:33;;;;;;;36.30;22.63;;;;;;;;;;5033515;28;20021;-61
2021/10/03 01:42:58;;;;;;;34.25;21.83;;;;;;;;;;5032830;28;20033;-61
2021/10/03 01:45:24;;;;;;;36.35;23.25;;;;;;;;;;5035324;28;20025;-61
2021/10/03 01:48:19;;;;;;;32.35;21.42;;;;;;;;;;5037367;28;20032;-61
2021/10/03 01:50:45;;;;;;;34.10;22.40;;;;;;;;;;5026969;28;20445;-59
2021/10/03 01:53:12;;;;;;;33.15;21.13;;;;;;;;;;5036948;28;20021;-59
2021/10/03 01:55:38;;;;;;;37.85;23.25;;;;;;;;;;5038039;28;20028;-58
2021/10/03 01:58:04;;;;;;;37.35;24.98;;;;;;;;;;5038184;28;20702;-60
2021/10/03 02:00:29;;;;;;;35.90;22.00;;;;;;;;;;5034663;28;20021;-61
2021/10/03 02:02:55;;;;;;;35.67;22.33;;;;;;;;;;5034200;28;20428;-59
2021/10/03 02:05:20;;;;;;;35.75;20.95;;;;;;;;;;5039876;28;20755;-60
2021/10/03 02:07:45;;;;;;;35.78;21.50;;;;;;;;;;5032487;28;20076;-61
2021/10/03 02:10:11;;;;;;;39.95;23.40;;;;;;;;;;5036059;28;20032;-59
2021/10/03 02:12:36;;;;;;;39.20;24.20;;;;;;;;;;5034635;28;20104;-61
2021/10/03 02:15:01;;;;;;;35.25;22.17;;;;;;;;;;5037045;28;20029;-61
2021/10/03 02:17:30;;;;;;;36.58;22.38;;;;;;;;;;5037026;28;20032;-59
2021/10/03 02:19:56;;;;;;;35.17;22.55;;;;;;;;;;5036418;28;20044;-60
2021/10/03 02:22:21;;;;;;;37.53;22.50;;;;;;;;;;5032338;28;20018;-61
2021/10/03 02:24:46;;;;;;;37.60;22.55;;;;;;;;;;5038087;28;20029;-61
2021/10/03 02:27:11;;;;;;;40.95;25.75;;;;;;;;;;5032698;28;20629;-60
2021/10/03 02:29:37;;;;;;;41.75;25.20;;;;;;;;;;5037098;28;20022;-61
2021/10/03 02:32:02;;;;;;;39.35;24.75;;;;;;;;;;5031839;28;20030;-61
2021/10/03 02:34:27;;;;;;;33.05;20.73;;;;;;;;;;5035532;28;20517;-59
2021/10/03 02:36:53;;;;;;;36.53;22.45;;;;;;;;;;5033754;28;20025;-61
2021/10/03 02:39:18;;;;;;;39.08;24.73;;;;;;;;;;5032637;28;20128;-61
2021/10/03 02:41:43;;;;;;;36.35;22.73;;;;;;;;;;5040580;28;20170;-59
2021/10/03 02:44:09;;;;;;;35.70;22.88;;;;;;;;;;5039123;28;20021;-58
2021/10/03 02:46:35;;;;;;;38.20;22.42;;;;;;;;;;5036563;28;20476;-60
2021/10/03 02:49:01;;;;;;;36.55;22.85;;;;;;;;;;5039568;28;20027;-59
2021/10/03 02:51:27;;;;;;;38.67;24.48;;;;;;;;;;5035825;28;20021;-60
2021/10/03 02:53:54;;;;;;;35.85;22.63;;;;;;;;;;5039411;28;20390;-59
2021/10/03 02:56:20;;;;;;;43.13;23.33;;;;;;;;;;5039330;28;20040;-61
2021/10/03 02:58:45;;;;;;;44.30;23.23;;;;;;;;;;5036005;28;20423;-60
2021/10/03 03:01:11;;;;;;;37.58;23.98;;;;;;;;;;5037917;28;20125;-59
2021/10/03 03:03:36;;;;;;;37.72;22.27;;;;;;;;;;5040547;28;20028;-60
2021/10/03 03:06:03;;;;;;;36.20;22.40;;;;;;;;;;5042614;28;20082;-59
2021/10/03 03:08:28;;;;;;;38.53;22.20;;;;;;;;;;5039911;28;20059;-58
2021/10/03 03:10:53;;;;;;;39.72;23.25;;;;;;;;;;5042156;28;20372;-59
2021/10/03 03:13:19;;;;;;;38.33;23.02;;;;;;;;;;5039707;28;20067;-59
2021/10/03 03:15:44;;;;;;;42.60;24.58;;;;;;;;;;5040420;28;20475;-60
2021/10/03 03:18:09;;;;;;;44.67;25.67;;;;;;;;;;5042323;28;20095;-59
2021/10/03 03:20:34;;;;;;;42.45;23.60;;;;;;;;;;5038510;28;20057;-60
2021/10/03 03:23:00;;;;;;;44.67;25.25;;;;;;;;;;5039557;28;20033;-60
2021/10/03 03:25:25;;;;;;;39.35;24.50;;;;;;;;;;5038308;28;20734;-61
2021/10/03 03:27:50;;;;;;;42.30;23.38;;;;;;;;;;5038997;28;20087;-60
2021/10/03 03:30:16;;;;;;;36.47;23.75;;;;;;;;;;5039536;28;20032;-60
2021/10/03 03:32:41;;;;;;;35.05;22.75;;;;;;;;;;5037867;28;20458;-61
2021/10/03 03:35:08;;;;;;;44.20;25.92;;;;;;;;;;5037533;28;20036;-59
2021/10/03 03:37:33;;;;;;;39.10;23.65;;;;;;;;;;5038603;28;20471;-60
2021/10/03 03:39:58;;;;;;;44.10;25.77;;;;;;;;;;5041346;28;20029;-60
2021/10/03 03:42:24;;;;;;;39.60;24.63;;;;;;;;;;5040323;28;20025;-60
2021/10/03 03:44:49;;;;;;;41.50;24.27;;;;;;;;;;5037133;28;20108;-60
2021/10/03 03:47:14;;;;;;;38.85;24.45;;;;;;;;;;5041036;28;20013;-60
2021/10/03 03:49:39;;;;;;;45.33;24.27;;;;;;;;;;5039716;28;20068;-60
2021/10/03 03:52:05;;;;;;;40.65;24.65;;;;;;;;;;5038562;28;20121;-59
2021/10/03 03:54:31;;;;;;;42.55;25.73;;;;;;;;;;5037360;28;20036;-60
2021/10/03 03:56:56;;;;;;;43.15;25.92;;;;;;;;;;5046563;28;20071;-59
2021/10/03 03:59:25;;;;;;;38.08;24.02;;;;;;;;;;5040681;28;20029;-61
2021/10/03 04:01:50;;;;;;;43.47;24.13;;;;;;;;;;5044679;28;20025;-61
2021/10/03 04:04:16;;;;;;;36.65;24.08;;;;;;;;;;5040621;28;20860;-62
2021/10/03 04:06:41;;;;;;;45.38;25.92;;;;;;;;;;5041860;28;20040;-61
2021/10/03 04:09:06;;;;;;;51.25;26.35;;;;;;;;;;5036694;28;20490;-59
2021/10/03 04:11:31;;;;;;;44.17;25.95;;;;;;;;;;5037624;28;20025;-60
2021/10/03 04:13:57;;;;;;;43.83;23.58;;;;;;;;;;5036323;28;20483;-60
2021/10/03 04:16:22;;;;;;;45.95;25.08;;;;;;;;;;5037860;28;20025;-59
2021/10/03 04:18:47;;;;;;;39.40;24.23;;;;;;;;;;5036575;28;20033;-61
2021/10/03 04:21:12;;;;;;;44.53;25.50;;;;;;;;;;5038004;28;20696;-59
2021/10/03 04:23:38;;;;;;;41.28;24.13;;;;;;;;;;5035822;28;20110;-61
2021/10/03 04:26:03;;;;;;;41.85;24.42;;;;;;;;;;5030991;28;20141;-61
2021/10/03 04:28:28;;;;;;;45.97;25.08;;;;;;;;;;5015745;28;20379;-61
2021/10/03 04:30:53;;;;;;;42.20;24.95;;;;;;;;;;5016283;28;20463;-58
2021/10/03 04:33:19;;;;;;;45.40;25.38;;;;;;;;;;5014763;28;20138;-60
2021/10/03 04:35:44;;;;;;;43.47;24.93;;;;;;;;;;5017196;28;20033;-60
2021/10/03 04:38:09;;;;;;;44.28;24.98;;;;;;;;;;5015212;28;20081;-60
2021/10/03 04:40:35;;;;;;;44.38;25.52;;;;;;;;;;5013062;28;20014;-62
2021/10/03 04:43:00;;;;;;;40.60;23.70;;;;;;;;;;5016541;28;20033;-61
2021/10/03 04:45:25;;;;;;;46.70;23.80;;;;;;;;;;5019611;28;20020;-58
2021/10/03 04:47:50;;;;;;;50.28;27.88;;;;;;;;;;5016843;28;20033;-57
2021/10/03 04:50:16;;;;;;;48.92;26.88;;;;;;;;;;5015822;28;20049;-57
2021/10/03 04:52:43;;;;;;;49.93;26.90;;;;;;;;;;5017863;28;20022;-59
2021/10/03 04:55:09;;;;;;;44.87;23.63;;;;;;;;;;5017375;28;20046;-59
2021/10/03 04:57:35;;;;;;;41.58;25.75;;;;;;;;;;5017659;28;20032;-61
2021/10/03 05:00:00;;;;;;;43.22;23.70;;;;;;;;;;5015629;28;20034;-61
2021/10/03 05:02:25;;;;;;;43.17;25.25;;;;;;;;;;5017586;28;20058;-58
2021/10/03 05:04:50;;;;;;;41.70;23.60;;;;;;;;;;5015872;28;20434;-60
2021/10/03 05:07:16;;;;;;;46.00;26.33;;;;;;;;;;5016803;28;20033;-60
2021/10/03 05:09:41;;;;;;;38.28;24.10;;;;;;;;;;5014424;28;20037;-60
2021/10/03 05:12:07;;;;;;;39.05;22.63;;;;;;;;;;5017699;28;20455;-59
2021/10/03 05:14:32;;;;;;;39.88;23.45;;;;;;;;;;5016184;28;20021;-60
2021/10/03 05:16:57;;;;;;;37.30;21.58;;;;;;;;;;5017732;28;20041;-59
2021/10/03 05:19:23;;;;;;;40.38;23.75;;;;;;;;;;5012185;28;20022;-58
2021/10/03 05:21:48;;;;;;;38.20;23.75;;;;;;;;;;5015534;28;20040;-58
2021/10/03 05:24:13;;;;;;;37.05;24.70;;;;;;;;;;5017670;28;20466;-60
2021/10/03 05:26:38;;;;;;;34.70;22.77;;;;;;;;;;5027463;28;20057;-60
2021/10/03 05:29:03;;;;;;;43.03;24.45;;;;;;;;;;5036264;28;20053;-62
2021/10/03 05:31:29;;;;;;;40.75;23.30;;;;;;;;;;5039438;28;20029;-62
2021/10/03 05:33:55;;;;;;;39.25;24.00;;;;;;;;;;5037689;28;20040;-62
2021/10/03 05:36:20;;;;;;;40.47;23.48;;;;;;;;;;5032659;28;20368;-61
2021/10/03 05:38:46;;;;;;;38.97;22.70;;;;;;;;;;5032430;28;20028;-61
2021/10/03 05:41:11;;;;;;;36.95;23.85;;;;;;;;;;5038177;28;20387;-61
2021/10/03 05:43:38;;;;;;;41.08;23.15;;;;;;;;;;5037681;28;20031;-61
2021/10/03 05:46:07;;;;;;;42.47;24.35;;;;;;;;;;5032054;28;20021;-59
2021/10/03 05:48:33;;;;;;;43.92;24.02;;;;;;;;;;5037744;28;20036;-55
2021/10/03 05:50:58;;;;;;;39.38;23.05;;;;;;;;;;5040012;28;20392;-61
2021/10/03 05:53:23;;;;;;;40.28;23.73;;;;;;;;;;5035496;28;20545;-60
2021/10/03 05:55:49;;;;;;;37.85;22.60;;;;;;;;;;5032861;28;20037;-59
2021/10/03 05:58:14;;;;;;;37.67;24.17;;;;;;;;;;5035584;28;20036;-61
2021/10/03 06:00:39;;;;;;;36.00;23.90;;;;;;;;;;5037194;28;20025;-60
2021/10/03 06:03:05;;;;;;;42.47;25.33;;;;;;;;;;5035125;28;20050;-60
2021/10/03 06:05:30;;;;;;;37.38;22.05;;;;;;;;;;5035244;28;20132;-59
2021/10/03 06:07:55;;;;;;;37.67;22.73;;;;;;;;;;5032790;28;20068;-60
2021/10/03 06:10:21;;;;;;;34.08;22.42;;;;;;;;;;5038855;28;20026;-59
2021/10/03 06:12:46;;;;;;;39.03;23.15;;;;;;;;;;5036993;28;20013;-59
2021/10/03 06:15:11;;;;;;;39.25;23.38;;;;;;;;;;5037440;28;20059;-61
2021/10/03 06:17:37;;;;;;;34.67;22.27;;;;;;;;;;5038269;28;20021;-59
2021/10/03 06:20:03;;;;;;;36.97;24.30;;;;;;;;;;5037267;28;20021;-61
2021/10/03 06:22:28;;;;;;;37.20;23.80;;;;;;;;;;5043156;28;20430;-59
2021/10/03 06:24:53;;;;;;;41.05;23.95;;;;;;;;;;5037652;28;20030;-59
2021/10/03 06:27:19;;;;;;;32.50;21.08;;;;;;;;;;5036520;28;20081;-60
2021/10/03 06:29:45;;;;;;;38.58;22.10;;;;;;;;;;5046634;28;20022;-60
2021/10/03 06:32:10;;;;;;;37.55;24.52;;;;;;;;;;5039817;28;20430;-61
2021/10/03 06:34:35;;;;;;;36.25;24.10;;;;;;;;;;5038718;28;20470;-60
2021/10/03 06:37:01;;;;;;;36.60;23.35;;;;;;;;;;5038694;28;20041;-61
2021/10/03 06:39:26;;;;;;;35.35;22.90;;;;;;;;;;5039677;28;20026;-59
2021/10/03 06:41:52;;;;;;;41.85;26.42;;;;;;;;;;5041639;28;20433;-59
2021/10/03 06:44:17;;;;;;;39.78;22.65;;;;;;;;;;5036139;28;20043;-60
2021/10/03 06:46:42;;;;;;;35.92;24.45;;;;;;;;;;5036823;28;20464;-56
2021/10/03 06:49:08;;;;;;;37.13;23.35;;;;;;;;;;5041600;28;20037;-60
2021/10/03 06:51:33;;;;;;;42.08;23.02;;;;;;;;;;5039295;28;20052;-60
2021/10/03 06:53:59;;;;;;;41.75;25.17;;;;;;;;;;5037477;28;20509;-59
2021/10/03 06:56:25;;;;;;;36.42;22.30;;;;;;;;;;5039456;28;20466;-58
2021/10/03 06:58:50;;;;;;;37.25;22.85;;;;;;;;;;5039273;28;20014;-59
2021/10/03 07:01:15;;;;;;;38.00;24.80;;;;;;;;;;5038663;28;20029;-60
2021/10/03 07:03:41;;;;;;;37.85;22.63;;;;;;;;;;5036543;28;20052;-58
2021/10/03 07:06:06;;;;;;;41.85;23.98;;;;;;;;;;5037480;28;20037;-60
2021/10/03 07:08:31;;;;;;;36.08;23.50;;;;;;;;;;5041680;28;20382;-61
2021/10/03 07:10:56;;;;;;;39.08;24.00;;;;;;;;;;5037960;28;20437;-61
2021/10/03 07:13:22;;;;;;;36.15;24.02;;;;;;;;;;5041325;28;20024;-59
2021/10/03 07:15:47;;;;;;;38.15;23.23;;;;;;;;;;5040519;28;20124;-61
2021/10/03 07:18:12;;;;;;;39.40;24.33;;;;;;;;;;5040064;28;20018;-61
2021/10/03 07:20:39;;;;;;;38.38;21.50;;;;;;;;;;5038725;28;20494;-60
2021/10/03 07:23:04;;;;;;;34.55;22.63;;;;;;;;;;5038108;28;20051;-60
2021/10/03 07:25:29;;;;;;;38.45;23.17;;;;;;;;;;5038784;28;20049;-61
2021/10/03 07:27:54;;;;;;;31.50;21.27;;;;;;;;;;5038580;28;20029;-63
2021/10/03 07:30:20;;;;;;;36.60;22.40;;;;;;;;;;5038130;28;20033;-61
2021/10/03 07:32:45;;;;;;;34.90;20.08;;;;;;;;;;5036197;28;20100;-61
2021/10/03 07:35:11;;;;;;;32.78;21.45;;;;;;;;;;5041063;28;20032;-62
2021/10/03 07:37:36;;;;;;;31.77;21.88;;;;;;;;;;5037492;28;20354;-62
2021/10/03 07:40:03;;;;;;;31.15;19.42;;;;;;;;;;5037630;28;20592;-60
2021/10/03 07:42:28;;;;;;;33.65;22.27;;;;;;;;;;5038978;28;20584;-60
2021/10/03 07:44:53;;;;;;;34.25;20.60;;;;;;;;;;5038157;28;20111;-61
2021/10/03 07:47:18;;;;;;;35.40;21.50;;;;;;;;;;5040671;28;20405;-62
2021/10/03 07:49:44;;;;;;;30.63;19.92;;;;;;;;;;5040748;28;20036;-60
2021/10/03 07:52:09;;;;;;;32.53;21.83;;;;;;;;;;5036463;28;20580;-59
2021/10/03 07:54:34;;;;;;;34.15;22.45;;;;;;;;;;5040141;28;20606;-58
2021/10/03 07:57:00;;;;;;;33.15;22.08;;;;;;;;;;5039218;28;20036;-60
2021/10/03 07:59:25;;;;;;;33.65;22.25;;;;;;;;;;5035404;28;20085;-58
2021/10/03 08:01:50;;;;;;;33.40;21.15;;;;;;;;;;5021681;28;20382;-62
2021/10/03 08:04:15;;;;;;;32.47;21.05;;;;;;;;;;5039182;28;20033;-62
2021/10/03 08:06:41;;;;;;;29.60;20.40;;;;;;;;;;5040099;28;20052;-60
2021/10/03 08:09:06;;;;;;;31.10;20.13;;;;;;;;;;5040090;28;20025;-59
2021/10/03 08:11:31;;;;;;;34.25;22.55;;;;;;;;;;5035566;28;20032;-62
2021/10/03 08:13:57;;;;;;;31.02;21.02;;;;;;;;;;5038112;28;20360;-61
2021/10/03 08:16:22;;;;;;;29.10;19.58;;;;;;;;;;5037437;28;20037;-61
2021/10/03 08:18:47;;;;;;;31.45;19.90;;;;;;;;;;5037423;28;20252;-62
2021/10/03 08:21:13;;;;;;;28.85;20.25;;;;;;;;;;5039700;28;20568;-60
2021/10/03 08:23:38;;;;;;;25.42;18.27;;;;;;;;;;5039615;28;20040;-62
2021/10/03 08:26:03;;;;;;;28.15;19.02;;;;;;;;;;5037286;28;20053;-61
2021/10/03 08:28:29;;;;;;;28.45;19.35;;;;;;;;;;5037622;28;20086;-62
2021/10/03 08:30:54;;;;;;;26.70;19.95;;;;;;;;;;5036858;28;20035;-62
2021/10/03 08:33:19;;;;;;;31.08;20.73;;;;;;;;;;5035747;28;20064;-62
2021/10/03 08:35:45;;;;;;;30.10;19.92;;;;;;;;;;5031000;28;20069;-62
2021/10/03 08:38:10;;;;;;;27.95;19.35;;;;;;;;;;5030333;28;20117;-59
2021/10/03 08:40:36;;;;;;;29.90;19.85;;;;;;;;;;5035488;28;20033;-60
2021/10/03 08:43:02;;;;;;;28.65;19.65;;;;;;;;;;5036079;28;20067;-61
2021/10/03 08:45:28;;;;;;;32.20;20.02;;;;;;;;;;5036443;28;20044;-62
2021/10/03 08:47:53;;;;;;;26.35;18.77;;;;;;;;;;5032755;28;20021;-61
2021/10/03 08:50:18;;;;;;;29.30;20.80;;;;;;;;;;5032942;28;20099;-60
2021/10/03 08:52:44;;;;;;;29.55;21.42;;;;;;;;;;5037779;28;20030;-59
2021/10/03 08:55:10;;;;;;;28.20;18.77;;;;;;;;;;5038386;28;20029;-62
2021/10/03 08:57:36;;;;;;;27.77;18.65;;;;;;;;;;5035591;28;20340;-60
2021/10/03 09:00:02;;;;;;;28.23;19.10;;;;;;;;;;5039796;28;20148;-58
2021/10/03 09:02:28;;;;;;;23.73;18.05;;;;;;;;;;5039391;28;20017;-58
2021/10/03 09:04:57;;;;;;;26.55;18.90;;;;;;;;;;5038284;28;20156;-60
2021/10/03 09:07:23;;;;;;;26.08;17.85;;;;;;;;;;5036499;28;20021;-61
2021/10/03 09:09:58;;;;;;;30.73;19.77;;;;;;;;;;5036806;28;20067;-60
2021/10/03 09:12:23;;;;;;;25.10;17.77;;;;;;;;;;5032888;28;20021;-63
2021/10/03 09:14:49;;;;;;;24.63;18.65;;;;;;;;;;5034233;28;20037;-60
2021/10/03 09:17:18;;;;;;;24.98;18.25;;;;;;;;;;5037155;28;20392;-59
2021/10/03 09:20:02;;;;;;;26.83;19.27;;;;;;;;;;5039400;28;20025;-57
2021/10/03 09:22:27;;;;;;;21.17;16.48;;;;;;;;;;5039410;28;20026;-59
2021/10/03 09:24:52;;;;;;;25.45;18.05;;;;;;;;;;5027233;28;20044;-58
2021/10/03 09:27:18;;;;;;;30.10;20.35;;;;;;;;;;5032693;28;20065;-60
2021/10/03 09:29:43;;;;;;;24.63;18.70;;;;;;;;;;5038687;28;20040;-59
2021/10/03 09:32:18;;;;;;;24.52;18.15;;;;;;;;;;5034384;28;20529;-59
2021/10/03 09:34:49;;;;;;;23.13;17.75;;;;;;;;;;5032747;28;20036;-58
2021/10/03 09:37:23;;;;;;;25.70;18.08;;;;;;;;;;5037439;28;20082;-60
2021/10/03 09:39:51;;;;;;;25.08;18.10;;;;;;;;;;5034409;28;20112;-60
2021/10/03 09:42:17;;;;;;;24.20;17.08;;;;;;;;;;5033814;28;20771;-62
2021/10/03 09:45:01;;;;;;;22.17;17.23;;;;;;;;;;5035440;28;20043;-61
2021/10/03 09:47:26;;;;;;;25.13;16.40;;;;;;;;;;5039128;28;20032;-59
2021/10/03 09:49:51;;;;;;;21.90;17.13;;;;;;;;;;5037067;28;20455;-59
2021/10/03 09:52:17;;;;;;;22.58;16.65;;;;;;;;;;5032745;28;20025;-59
2021/10/03 09:54:42;;;;;;;26.05;18.48;;;;;;;;;;5035939;28;20044;-59
2021/10/03 09:57:07;;;;;;;21.63;16.85;;;;;;;;;;5041085;28;20029;-60
2021/10/03 09:59:33;;;;;;;21.92;17.33;;;;;;;;;;5037525;28;20335;-58
2021/10/03 10:01:58;;;;;;;24.10;17.25;;;;;;;;;;5037579;28;20328;-57
2021/10/03 10:04:23;;;;;;;22.65;16.67;;;;;;;;;;5033652;28;20018;-59
2021/10/03 10:06:49;;;;;;;24.73;15.88;;;;;;;;;;5035432;28;20116;-57
2021/10/03 10:09:16;;;;;;;22.85;16.40;;;;;;;;;;5035054;28;20061;-55
2021/10/03 10:11:49;;;;;;;25.45;17.52;;;;;;;;;;5032008;28;20608;-59
2021/10/03 10:14:15;;;;;;;24.35;16.70;;;;;;;;;;5029474;28;20025;-60
2021/10/03 10:16:42;;;;;;;24.30;16.35;;;;;;;;;;5036526;28;20029;-58
2021/10/03 10:19:27;;;;;;;23.02;15.65;;;;;;;;;;5034126;28;20545;-57
2021/10/03 10:22:15;;;;;;;19.15;14.60;;;;;;;;;;5031390;28;20026;-57
2021/10/03 10:24:43;;;;;;;25.17;15.70;;;;;;;;;;5029274;28;20036;-56
2021/10/03 10:27:18;;;;;;;20.75;14.57;;;;;;;;;;5036244;28;20073;-53
2021/10/03 10:29:59;;;;;;;22.08;15.35;;;;;;;;;;5031396;28;20025;-57
2021/10/03 10:32:25;;;;;;;22.58;15.90;;;;;;;;;;5031837;28;20033;-61
2021/10/03 10:35:11;;;;;;;19.35;15.63;;;;;;;;;;5035750;28;20029;-56
2021/10/03 10:37:48;;;;;;;18.15;13.60;;;;;;;;;;5038010;28;20548;-58
2021/10/03 10:42:48;;;;;;;17.33;14.25;;;;;;;;;;5031130;28;20029;-59
2021/10/03 10:45:26;;;;;;;16.15;13.30;;;;;;;;;;5033156;28;20382;-58
2021/10/03 10:48:06;;;;;;;16.60;13.27;;;;;;;;;;5030609;28;20071;-57
2021/10/03 10:50:32;;;;;;;18.52;14.80;;;;;;;;;;5029338;28;20065;-59
2021/10/03 10:53:16;;;;;;;15.30;12.50;;;;;;;;;;5035128;28;20064;-58
2021/10/03 10:55:41;;;;;;;16.88;13.25;;;;;;;;;;5037046;28;20033;-61
2021/10/03 10:58:07;;;;;;;17.48;12.05;;;;;;;;;;5034488;28;20410;-59
2021/10/03 11:00:32;;;;;;;17.17;12.27;;;;;;;;;;5034943;28;20131;-59
2021/10/03 11:02:59;;;;;;;15.80;12.50;;;;;;;;;;5038279;28;20033;-58
2021/10/03 11:05:43;;;;;;;15.32;11.93;;;;;;;;;;5038117;28;20029;-60
2021/10/03 11:08:18;;;;;;;15.90;11.45;;;;;;;;;;5040873;28;20281;-60
2021/10/03 11:11:09;;;;;;;15.27;11.10;;;;;;;;;;5044865;28;20527;-58
2021/10/03 11:13:37;;;;;;;16.08;12.43;;;;;;;;;;5041067;28;20112;-59
2021/10/03 11:16:23;;;;;;;12.95;11.07;;;;;;;;;;5037623;28;20472;-59
2021/10/03 11:18:50;;;;;;;15.68;11.02;;;;;;;;;;5038901;28;20048;-59
2021/10/03 11:21:19;;;;;;;15.15;11.68;;;;;;;;;;5036942;28;20025;-59
2021/10/03 11:23:44;;;;;;;12.70;10.88;;;;;;;;;;5037118;28;20055;-59
2021/10/03 11:26:10;;;;;;;14.50;11.27;;;;;;;;;;5032261;28;20053;-60
2021/10/03 11:28:52;;;;;;;13.82;10.80;;;;;;;;;;5035784;28;20112;-58
2021/10/03 11:31:54;;;;;;;13.07;10.82;;;;;;;;;;5036929;28;20379;-60
2021/10/03 11:34:37;;;;;;;13.65;10.50;;;;;;;;;;4988376;28;20209;-60
2021/10/03 11:37:31;;;;;;;11.45;9.70;;;;;;;;;;4987191;28;20097;-60
2021/10/03 11:40:07;;;;;;;13.82;10.40;;;;;;;;;;4975329;28;20041;-58
2021/10/03 11:42:38;;;;;;;9.77;8.77;;;;;;;;;;4989163;28;20041;-59
2021/10/03 11:45:03;;;;;;;11.40;9.23;;;;;;;;;;4987988;28;20090;-59
2021/10/03 11:47:35;;;;;;;14.50;10.50;;;;;;;;;;4987821;28;20058;-59
2021/10/03 11:50:02;;;;;;;11.20;10.00;;;;;;;;;;4992017;28;20109;-58
2021/10/03 11:52:32;;;;;;;11.75;9.10;;;;;;;;;;4988746;28;20029;-57
2021/10/03 11:55:23;;;;;;;12.55;8.32;;;;;;;;;;4987763;28;20043;-59
2021/10/03 11:57:49;;;;;;;11.73;8.43;;;;;;;;;;4894351;29;20580;-59
2021/10/03 12:00:15;;;;;;;9.18;6.93;;;;;;;;;;4894951;29;20080;-58
2021/10/03 12:02:44;;;;;;;10.07;6.45;;;;;;;;;;4892446;29;20032;-59
2021/10/03 12:05:11;;;;;;;7.93;7.13;;;;;;;;;;4890760;29;20032;-59
2021/10/03 12:07:36;;;;;;;8.80;6.80;;;;;;;;;;4900282;29;20497;-59
2021/10/03 12:10:10;;;;;;;9.02;6.13;;;;;;;;;;4939808;29;20035;-58
2021/10/03 12:12:47;;;;;;;7.85;6.25;;;;;;;;;;4937319;29;20023;-58
2021/10/03 12:15:31;;;;;;;7.25;6.55;;;;;;;;;;4939634;28;20043;-58
2021/10/03 12:17:56;;;;;;;9.68;7.25;;;;;;;;;;4939990;29;20035;-58
2021/10/03 12:20:21;;;;;;;8.80;6.72;;;;;;;;;;4941800;29;20028;-58
2021/10/03 12:22:58;;;;;;;7.32;6.13;;;;;;;;;;4939776;29;20404;-57
2021/10/03 12:25:39;;;;;;;7.38;5.97;;;;;;;;;;4938292;29;20032;-58
2021/10/03 12:28:04;;;;;;;8.93;5.95;;;;;;;;;;4940736;29;20090;-59
2021/10/03 12:30:43;;;;;;;7.30;6.05;;;;;;;;;;4943859;29;20034;-58
2021/10/03 12:33:08;;;;;;;6.35;5.85;;;;;;;;;;4941478;28;20054;-59
2021/10/03 12:35:37;;;;;;;6.85;6.25;;;;;;;;;;5024958;28;20037;-56
2021/10/03 12:38:02;;;;;;;7.70;5.88;;;;;;;;;;5037428;28;20037;-60
2021/10/03 12:40:27;;;;;;;6.10;5.32;;;;;;;;;;5038425;28;20289;-60
2021/10/03 12:42:53;;;;;;;6.40;5.80;;;;;;;;;;5038298;28;20074;-60
2021/10/03 12:45:18;;;;;;;7.53;5.75;;;;;;;;;;5036342;28;20052;-56
2021/10/03 12:47:43;;;;;;;8.15;6.65;;;;;;;;;;5034592;28;20024;-60
2021/10/03 12:50:09;;;;;;;6.20;5.53;;;;;;;;;;5038057;28;20452;-59
2021/10/03 12:52:34;;;;;;;7.72;6.55;;;;;;;;;;5038806;28;20116;-63
2021/10/03 12:55:00;;;;;;;5.65;5.18;;;;;;;;;;5036447;28;20486;-62
2021/10/03 12:57:26;;;;;;;7.63;5.93;;;;;;;;;;5040831;28;20064;-62
2021/10/03 12:59:52;;;;;;;7.30;5.40;;;;;;;;;;5037222;28;20539;-60
2021/10/03 13:02:17;;;;;;;6.97;6.18;;;;;;;;;;5032481;28;20032;-62
2021/10/03 13:04:42;;;;;;;7.47;6.53;;;;;;;;;;5034931;28;20037;-62
2021/10/03 13:07:07;;;;;;;7.13;5.82;;;;;;;;;;5038993;28;20090;-62
2021/10/03 13:09:33;;;;;;;5.53;5.03;;;;;;;;;;5038543;28;20112;-62
2021/10/03 13:11:58;;;;;;;6.10;5.50;;;;;;;;;;5031542;28;20033;-62
2021/10/03 13:14:23;;;;;;;8.27;6.63;;;;;;;;;;5040375;28;20467;-64
2021/10/03 13:16:49;;;;;;;7.38;5.93;;;;;;;;;;5035742;28;20384;-62
2021/10/03 13:19:14;;;;;;;7.85;5.43;;;;;;;;;;5035352;28;20031;-61
2021/10/03 13:21:39;;;;;;;6.82;6.10;;;;;;;;;;5034467;28;20059;-61
2021/10/03 13:24:05;;;;;;;5.72;5.20;;;;;;;;;;5034974;28;20037;-62
2021/10/03 13:26:31;;;;;;;5.72;5.13;;;;;;;;;;5035646;28;20140;-61
2021/10/03 13:28:56;;;;;;;6.10;5.10;;;;;;;;;;5034573;28;20459;-61
2021/10/03 13:31:21;;;;;;;5.65;5.10;;;;;;;;;;5036067;28;20025;-63
2021/10/03 13:33:47;;;;;;;7.43;6.63;;;;;;;;;;5038567;28;20025;-62
2021/10/03 13:36:12;;;;;;;6.63;5.78;;;;;;;;;;5040373;28;20033;-61
2021/10/03 13:38:37;;;;;;;13.13;7.00;;;;;;;;;;5035402;28;20059;-62
2021/10/03 13:41:03;;;;;;;6.47;5.78;;;;;;;;;;5035346;28;20031;-62
2021/10/03 13:43:29;;;;;;;6.10;5.18;;;;;;;;;;5039464;28;20094;-62
2021/10/03 13:45:54;;;;;;;6.70;5.57;;;;;;;;;;5039158;28;20033;-60
2021/10/03 13:48:20;;;;;;;8.90;5.50;;;;;;;;;;5029362;28;20524;-60
2021/10/03 13:50:45;;;;;;;6.00;4.72;;;;;;;;;;5032583;28;20505;-59
2021/10/03 13:53:10;;;;;;;6.47;5.30;;;;;;;;;;5035295;28;20021;-62
2021/10/03 13:55:35;;;;;;;5.90;5.20;;;;;;;;;;5033794;28;20120;-61
2021/10/03 13:58:01;;;;;;;9.50;5.30;;;;;;;;;;5036646;28;20036;-59
2021/10/03 14:00:26;;;;;;;7.05;4.80;;;;;;;;;;5033611;28;20459;-61
2021/10/03 14:02:51;;;;;;;6.28;4.68;;;;;;;;;;5037202;28;20052;-62
2021/10/03 14:05:17;;;;;;;5.57;5.05;;;;;;;;;;5037427;28;20032;-63
2021/10/03 14:07:42;;;;;;;11.50;7.05;;;;;;;;;;5031264;28;20064;-59
2021/10/03 14:10:09;;;;;;;5.45;4.95;;;;;;;;;;5032505;28;20360;-62
2021/10/03 14:12:34;;;;;;;6.40;4.70;;;;;;;;;;5038929;28;20025;-61
2021/10/03 14:14:59;;;;;;;6.35;5.60;;;;;;;;;;5039601;28;20045;-62
2021/10/03 14:17:25;;;;;;;8.73;5.75;;;;;;;;;;5034319;28;20128;-61
2021/10/03 14:19:50;;;;;;;8.20;4.95;;;;;;;;;;5035898;28;20513;-61
2021/10/03 14:22:15;;;;;;;5.97;5.25;;;;;;;;;;5036957;28;20025;-61